< < Back
Terminal Aerodrome Forecast


Current Version              Previous Versions:   1  2  3  4  5  6  7  8  9  

Terminal Aerodrome Forecast

621
FTUS44 KBMX 250257 AAB
TAFTCL
TAF AMD
KTCL 250257Z 2503/2524 12006KT P6SM VCSH BKN060
     FM250800 15010KT P6SM OVC015
      TEMPO 2511/2515 4SM BR OVC007
     FM251800 15006KT 5SM SHRA VCTS SCT020 BKN040CB=



Latest METAR

619
SAUS70 KWBC 250700 RRM
MTRTCL
METAR KTCL 250653Z AUTO 13004KT 9SM BKN095 22/21 A3012 RMK AO2 SLP196
T02220206


USA.gov is the U.S. government's official web portal to all federal, state and local government web resources and services.